sensor_id;sensor_type;location;lat;lon;timestamp;temperature;humidity
10171;DHT22;5127;50.922;6.988;2023-03-11T00:00:16;5.40;73.30
10171;DHT22;5127;50.922;6.988;2023-03-11T00:02:47;5.40;73.10
10171;DHT22;5127;50.922;6.988;2023-03-11T00:05:16;5.40;72.90
10171;DHT22;5127;50.922;6.988;2023-03-11T00:07:44;5.40;73.20
10171;DHT22;5127;50.922;6.988;2023-03-11T00:10:14;5.40;73.20
10171;DHT22;5127;50.922;6.988;2023-03-11T00:12:41;5.40;72.90
10171;DHT22;5127;50.922;6.988;2023-03-11T00:15:10;5.50;73.10
10171;DHT22;5127;50.922;6.988;2023-03-11T00:17:37;5.50;73.20
10171;DHT22;5127;50.922;6.988;2023-03-11T00:20:10;5.50;73.20
10171;DHT22;5127;50.922;6.988;2023-03-11T00:22:40;5.50;72.90
10171;DHT22;5127;50.922;6.988;2023-03-11T00:25:09;5.50;73.10
10171;DHT22;5127;50.922;6.988;2023-03-11T00:27:39;5.50;72.90
10171;DHT22;5127;50.922;6.988;2023-03-11T00:30:08;5.50;72.90
10171;DHT22;5127;50.922;6.988;2023-03-11T00:32:38;5.50;72.90
10171;DHT22;5127;50.922;6.988;2023-03-11T00:35:11;5.50;72.90
10171;DHT22;5127;50.922;6.988;2023-03-11T00:37:39;5.50;72.60
10171;DHT22;5127;50.922;6.988;2023-03-11T00:40:11;5.50;72.70
10171;DHT22;5127;50.922;6.988;2023-03-11T00:42:38;5.50;72.30
10171;DHT22;5127;50.922;6.988;2023-03-11T00:45:06;5.40;72.30
10171;DHT22;5127;50.922;6.988;2023-03-11T00:47:34;5.40;72.20
10171;DHT22;5127;50.922;6.988;2023-03-11T00:50:01;5.40;72.30
10171;DHT22;5127;50.922;6.988;2023-03-11T00:52:30;5.40;72.40
10171;DHT22;5127;50.922;6.988;2023-03-11T00:54:57;5.30;72.30
10171;DHT22;5127;50.922;6.988;2023-03-11T00:57:25;5.30;72.40
10171;DHT22;5127;50.922;6.988;2023-03-11T00:59:54;5.30;72.40
10171;DHT22;5127;50.922;6.988;2023-03-11T01:02:23;5.30;72.50
10171;DHT22;5127;50.922;6.988;2023-03-11T01:04:52;5.30;72.60
10171;DHT22;5127;50.922;6.988;2023-03-11T01:07:20;5.30;72.50
10171;DHT22;5127;50.922;6.988;2023-03-11T01:09:49;5.30;72.60
10171;DHT22;5127;50.922;6.988;2023-03-11T01:12:16;5.30;72.60
10171;DHT22;5127;50.922;6.988;2023-03-11T01:14:43;5.30;72.70
10171;DHT22;5127;50.922;6.988;2023-03-11T01:17:10;5.30;72.80
10171;DHT22;5127;50.922;6.988;2023-03-11T01:19:38;5.40;72.70
10171;DHT22;5127;50.922;6.988;2023-03-11T01:22:05;5.30;72.70
10171;DHT22;5127;50.922;6.988;2023-03-11T01:24:33;5.40;72.80
10171;DHT22;5127;50.922;6.988;2023-03-11T01:27:04;5.40;72.60
10171;DHT22;5127;50.922;6.988;2023-03-11T01:29:32;5.40;72.60
10171;DHT22;5127;50.922;6.988;2023-03-11T01:31:59;5.40;72.60
10171;DHT22;5127;50.922;6.988;2023-03-11T01:34:26;5.40;72.70
10171;DHT22;5127;50.922;6.988;2023-03-11T01:36:53;5.40;72.60
10171;DHT22;5127;50.922;6.988;2023-03-11T01:39:21;5.40;72.60
10171;DHT22;5127;50.922;6.988;2023-03-11T01:41:48;5.40;72.60
10171;DHT22;5127;50.922;6.988;2023-03-11T01:44:19;5.40;72.50
10171;DHT22;5127;50.922;6.988;2023-03-11T01:47:30;5.50;72.50
10171;DHT22;5127;50.922;6.988;2023-03-11T01:49:58;5.50;71.40
10171;DHT22;5127;50.922;6.988;2023-03-11T01:52:26;5.50;72.40
10171;DHT22;5127;50.922;6.988;2023-03-11T01:54:54;5.50;72.40
10171;DHT22;5127;50.922;6.988;2023-03-11T01:57:22;5.50;72.30
10171;DHT22;5127;50.922;6.988;2023-03-11T01:59:53;5.50;72.20
10171;DHT22;5127;50.922;6.988;2023-03-11T02:02:27;5.50;72.10
10171;DHT22;5127;50.922;6.988;2023-03-11T02:04:57;5.40;71.90
10171;DHT22;5127;50.922;6.988;2023-03-11T02:07:25;5.50;72.20
10171;DHT22;5127;50.922;6.988;2023-03-11T02:09:53;5.40;72.10
10171;DHT22;5127;50.922;6.988;2023-03-11T02:12:21;5.40;72.10
10171;DHT22;5127;50.922;6.988;2023-03-11T02:14:51;5.40;72.10
10171;DHT22;5127;50.922;6.988;2023-03-11T02:17:20;5.40;71.90
10171;DHT22;5127;50.922;6.988;2023-03-11T02:20:00;5.40;72.00
10171;DHT22;5127;50.922;6.988;2023-03-11T02:22:30;5.40;71.50
10171;DHT22;5127;50.922;6.988;2023-03-11T02:25:04;5.40;72.00
10171;DHT22;5127;50.922;6.988;2023-03-11T02:27:38;5.40;72.20
10171;DHT22;5127;50.922;6.988;2023-03-11T02:30:10;5.50;72.10
10171;DHT22;5127;50.922;6.988;2023-03-11T02:32:38;5.40;72.00
10171;DHT22;5127;50.922;6.988;2023-03-11T02:35:07;5.50;72.10
10171;DHT22;5127;50.922;6.988;2023-03-11T02:37:35;5.50;72.10
10171;DHT22;5127;50.922;6.988;2023-03-11T02:43:13;5.50;70.90
10171;DHT22;5127;50.922;6.988;2023-03-11T02:45:43;5.50;71.60
10171;DHT22;5127;50.922;6.988;2023-03-11T02:48:13;5.50;71.60
10171;DHT22;5127;50.922;6.988;2023-03-11T02:50:41;5.40;71.30
10171;DHT22;5127;50.922;6.988;2023-03-11T02:53:09;5.40;71.30
10171;DHT22;5127;50.922;6.988;2023-03-11T02:55:36;5.40;71.30
10171;DHT22;5127;50.922;6.988;2023-03-11T02:58:06;5.40;71.30
10171;DHT22;5127;50.922;6.988;2023-03-11T03:00:34;5.30;71.30
10171;DHT22;5127;50.922;6.988;2023-03-11T03:03:05;5.30;71.10
10171;DHT22;5127;50.922;6.988;2023-03-11T03:05:33;5.30;71.20
10171;DHT22;5127;50.922;6.988;2023-03-11T03:08:01;5.30;71.20
10171;DHT22;5127;50.922;6.988;2023-03-11T03:10:29;5.30;71.20
10171;DHT22;5127;50.922;6.988;2023-03-11T03:12:57;5.30;71.10
10171;DHT22;5127;50.922;6.988;2023-03-11T03:15:25;5.30;71.00
10171;DHT22;5127;50.922;6.988;2023-03-11T03:17:54;5.20;70.80
10171;DHT22;5127;50.922;6.988;2023-03-11T03:20:22;5.20;70.60
10171;DHT22;5127;50.922;6.988;2023-03-11T03:22:53;5.20;70.70
10171;DHT22;5127;50.922;6.988;2023-03-11T03:25:24;5.10;70.60
10171;DHT22;5127;50.922;6.988;2023-03-11T03:27:53;5.10;70.40
10171;DHT22;5127;50.922;6.988;2023-03-11T03:30:21;5.10;70.30
10171;DHT22;5127;50.922;6.988;2023-03-11T03:32:48;5.00;70.20
10171;DHT22;5127;50.922;6.988;2023-03-11T03:35:18;5.00;70.20
10171;DHT22;5127;50.922;6.988;2023-03-11T03:37:56;5.00;70.00
10171;DHT22;5127;50.922;6.988;2023-03-11T03:40:24;4.90;70.00
10171;DHT22;5127;50.922;6.988;2023-03-11T03:42:52;4.90;70.00
10171;DHT22;5127;50.922;6.988;2023-03-11T03:45:20;4.90;70.00
10171;DHT22;5127;50.922;6.988;2023-03-11T03:47:51;4.80;69.90
10171;DHT22;5127;50.922;6.988;2023-03-11T03:50:22;4.80;69.90
10171;DHT22;5127;50.922;6.988;2023-03-11T03:52:51;4.70;69.70
10171;DHT22;5127;50.922;6.988;2023-03-11T03:55:20;4.70;69.70
10171;DHT22;5127;50.922;6.988;2023-03-11T03:57:48;4.70;69.70
10171;DHT22;5127;50.922;6.988;2023-03-11T04:00:17;4.60;69.60
10171;DHT22;5127;50.922;6.988;2023-03-11T04:02:50;4.60;69.60
10171;DHT22;5127;50.922;6.988;2023-03-11T04:05:27;4.50;69.60
10171;DHT22;5127;50.922;6.988;2023-03-11T04:07:55;4.50;69.40
10171;DHT22;5127;50.922;6.988;2023-03-11T04:10:22;4.50;69.60
10171;DHT22;5127;50.922;6.988;2023-03-11T04:12:50;4.40;69.50
10171;DHT22;5127;50.922;6.988;2023-03-11T04:15:18;4.40;69.50
10171;DHT22;5127;50.922;6.988;2023-03-11T04:17:45;4.40;69.50
10171;DHT22;5127;50.922;6.988;2023-03-11T04:20:13;4.30;69.40
10171;DHT22;5127;50.922;6.988;2023-03-11T04:22:44;4.30;69.50
10171;DHT22;5127;50.922;6.988;2023-03-11T04:25:12;4.30;69.30
10171;DHT22;5127;50.922;6.988;2023-03-11T04:27:39;4.20;69.60
10171;DHT22;5127;50.922;6.988;2023-03-11T04:30:12;4.20;69.60
10171;DHT22;5127;50.922;6.988;2023-03-11T04:32:39;4.20;69.70
10171;DHT22;5127;50.922;6.988;2023-03-11T04:35:07;4.20;69.70
10171;DHT22;5127;50.922;6.988;2023-03-11T04:37:34;4.20;69.70
10171;DHT22;5127;50.922;6.988;2023-03-11T04:40:04;4.10;69.50
10171;DHT22;5127;50.922;6.988;2023-03-11T04:42:33;4.10;69.40
10171;DHT22;5127;50.922;6.988;2023-03-11T04:45:00;4.10;69.50
10171;DHT22;5127;50.922;6.988;2023-03-11T04:47:29;4.10;69.60
10171;DHT22;5127;50.922;6.988;2023-03-11T04:49:57;4.10;69.50
10171;DHT22;5127;50.922;6.988;2023-03-11T04:52:24;4.10;69.50
10171;DHT22;5127;50.922;6.988;2023-03-11T04:54:52;4.00;69.40
10171;DHT22;5127;50.922;6.988;2023-03-11T04:57:21;4.10;69.60
10171;DHT22;5127;50.922;6.988;2023-03-11T04:59:48;4.00;69.30
10171;DHT22;5127;50.922;6.988;2023-03-11T05:02:17;4.00;69.50
10171;DHT22;5127;50.922;6.988;2023-03-11T05:04:51;4.00;69.60
10171;DHT22;5127;50.922;6.988;2023-03-11T05:07:19;4.00;69.50
10171;DHT22;5127;50.922;6.988;2023-03-11T05:09:47;4.00;69.40
10171;DHT22;5127;50.922;6.988;2023-03-11T05:12:14;4.00;69.50
10171;DHT22;5127;50.922;6.988;2023-03-11T05:14:48;3.90;69.30
10171;DHT22;5127;50.922;6.988;2023-03-11T05:17:15;3.90;69.40
10171;DHT22;5127;50.922;6.988;2023-03-11T05:19:44;3.90;69.50
10171;DHT22;5127;50.922;6.988;2023-03-11T05:22:19;3.90;69.50
10171;DHT22;5127;50.922;6.988;2023-03-11T05:24:47;3.90;69.60
10171;DHT22;5127;50.922;6.988;2023-03-11T05:27:15;3.90;69.80
10171;DHT22;5127;50.922;6.988;2023-03-11T05:29:45;3.90;69.90
10171;DHT22;5127;50.922;6.988;2023-03-11T05:32:14;3.90;70.10
10171;DHT22;5127;50.922;6.988;2023-03-11T05:34:44;4.00;70.20
10171;DHT22;5127;50.922;6.988;2023-03-11T05:37:12;4.00;70.20
10171;DHT22;5127;50.922;6.988;2023-03-11T05:39:39;4.00;70.10
10171;DHT22;5127;50.922;6.988;2023-03-11T05:42:07;4.00;70.20
10171;DHT22;5127;50.922;6.988;2023-03-11T05:44:35;4.00;70.10
10171;DHT22;5127;50.922;6.988;2023-03-11T05:47:02;4.00;70.10
10171;DHT22;5127;50.922;6.988;2023-03-11T05:49:33;4.10;70.10
10171;DHT22;5127;50.922;6.988;2023-03-11T05:52:00;4.10;70.00
10171;DHT22;5127;50.922;6.988;2023-03-11T05:54:29;4.10;70.10
10171;DHT22;5127;50.922;6.988;2023-03-11T05:56:57;4.10;70.10
10171;DHT22;5127;50.922;6.988;2023-03-11T05:59:24;4.10;70.10
10171;DHT22;5127;50.922;6.988;2023-03-11T06:02:00;4.10;70.10
10171;DHT22;5127;50.922;6.988;2023-03-11T06:04:28;4.00;69.90
10171;DHT22;5127;50.922;6.988;2023-03-11T06:06:57;4.10;70.10
10171;DHT22;5127;50.922;6.988;2023-03-11T06:09:28;4.10;69.90
10171;DHT22;5127;50.922;6.988;2023-03-11T06:11:55;4.10;70.10
10171;DHT22;5127;50.922;6.988;2023-03-11T06:14:26;4.10;70.10
10171;DHT22;5127;50.922;6.988;2023-03-11T06:16:57;4.10;70.10
10171;DHT22;5127;50.922;6.988;2023-03-11T06:19:24;4.10;70.20
10171;DHT22;5127;50.922;6.988;2023-03-11T06:21:52;4.10;70.20
10171;DHT22;5127;50.922;6.988;2023-03-11T06:24:20;4.10;70.30
10171;DHT22;5127;50.922;6.988;2023-03-11T06:26:50;4.20;70.30
10171;DHT22;5127;50.922;6.988;2023-03-11T06:29:18;4.20;70.30
10171;DHT22;5127;50.922;6.988;2023-03-11T06:31:47;4.20;70.60
10171;DHT22;5127;50.922;6.988;2023-03-11T06:34:14;4.30;70.90
10171;DHT22;5127;50.922;6.988;2023-03-11T06:36:42;4.30;71.10
10171;DHT22;5127;50.922;6.988;2023-03-11T06:39:12;4.40;71.30
10171;DHT22;5127;50.922;6.988;2023-03-11T06:41:41;4.40;71.40
10171;DHT22;5127;50.922;6.988;2023-03-11T06:44:10;4.50;71.60
10171;DHT22;5127;50.922;6.988;2023-03-11T06:46:39;4.60;71.80
10171;DHT22;5127;50.922;6.988;2023-03-11T06:49:06;4.70;71.80
10171;DHT22;5127;50.922;6.988;2023-03-11T06:51:34;4.70;71.70
10171;DHT22;5127;50.922;6.988;2023-03-11T06:54:03;4.80;71.70
10171;DHT22;5127;50.922;6.988;2023-03-11T06:56:31;4.90;71.60
10171;DHT22;5127;50.922;6.988;2023-03-11T06:59:05;4.90;71.60
10171;DHT22;5127;50.922;6.988;2023-03-11T07:01:33;5.00;71.40
10171;DHT22;5127;50.922;6.988;2023-03-11T07:04:03;5.00;71.50
10171;DHT22;5127;50.922;6.988;2023-03-11T07:06:31;5.10;71.30
10171;DHT22;5127;50.922;6.988;2023-03-11T07:09:07;5.10;71.10
10171;DHT22;5127;50.922;6.988;2023-03-11T07:11:38;5.10;71.00
10171;DHT22;5127;50.922;6.988;2023-03-11T07:14:14;5.10;71.10
10171;DHT22;5127;50.922;6.988;2023-03-11T07:16:46;5.20;71.10
10171;DHT22;5127;50.922;6.988;2023-03-11T07:19:21;5.20;71.30
10171;DHT22;5127;50.922;6.988;2023-03-11T07:21:49;5.30;71.60
10171;DHT22;5127;50.922;6.988;2023-03-11T07:24:16;5.30;71.60
10171;DHT22;5127;50.922;6.988;2023-03-11T07:26:44;5.40;71.80
10171;DHT22;5127;50.922;6.988;2023-03-11T07:29:12;5.50;72.00
10171;DHT22;5127;50.922;6.988;2023-03-11T07:31:40;5.50;71.90
10171;DHT22;5127;50.922;6.988;2023-03-11T07:34:11;5.60;72.10
10171;DHT22;5127;50.922;6.988;2023-03-11T07:36:39;5.70;72.20
10171;DHT22;5127;50.922;6.988;2023-03-11T07:39:10;5.80;73.10
10171;DHT22;5127;50.922;6.988;2023-03-11T07:41:38;6.00;74.10
10171;DHT22;5127;50.922;6.988;2023-03-11T07:44:06;6.20;74.90
10171;DHT22;5127;50.922;6.988;2023-03-11T07:46:34;6.50;75.90
10171;DHT22;5127;50.922;6.988;2023-03-11T07:49:02;6.80;76.00
10171;DHT22;5127;50.922;6.988;2023-03-11T07:51:31;7.10;76.70
10171;DHT22;5127;50.922;6.988;2023-03-11T07:53:59;7.40;77.00
10171;DHT22;5127;50.922;6.988;2023-03-11T07:56:28;7.80;77.60
10171;DHT22;5127;50.922;6.988;2023-03-11T07:58:57;8.10;77.50
10171;DHT22;5127;50.922;6.988;2023-03-11T08:01:25;8.50;77.70
10171;DHT22;5127;50.922;6.988;2023-03-11T08:03:56;8.90;77.30
10171;DHT22;5127;50.922;6.988;2023-03-11T08:06:26;9.40;77.40
10171;DHT22;5127;50.922;6.988;2023-03-11T08:08:54;9.70;77.10
10171;DHT22;5127;50.922;6.988;2023-03-11T08:11:21;10.00;75.40
10171;DHT22;5127;50.922;6.988;2023-03-11T08:13:49;10.40;75.00
10171;DHT22;5127;50.922;6.988;2023-03-11T08:16:19;10.70;74.10
10171;DHT22;5127;50.922;6.988;2023-03-11T08:18:48;10.90;72.70
10171;DHT22;5127;50.922;6.988;2023-03-11T08:21:18;11.20;72.90
10171;DHT22;5127;50.922;6.988;2023-03-11T08:23:46;11.40;72.10
10171;DHT22;5127;50.922;6.988;2023-03-11T08:26:16;11.60;71.90
10171;DHT22;5127;50.922;6.988;2023-03-11T08:28:43;11.80;71.20
10171;DHT22;5127;50.922;6.988;2023-03-11T08:31:12;11.90;71.40
10171;DHT22;5127;50.922;6.988;2023-03-11T08:33:39;12.10;71.40
10171;DHT22;5127;50.922;6.988;2023-03-11T08:36:07;12.30;71.30
10171;DHT22;5127;50.922;6.988;2023-03-11T08:38:35;12.50;70.90
10171;DHT22;5127;50.922;6.988;2023-03-11T08:41:03;12.70;70.10
10171;DHT22;5127;50.922;6.988;2023-03-11T08:43:31;12.90;70.10
10171;DHT22;5127;50.922;6.988;2023-03-11T08:45:59;12.90;69.50
10171;DHT22;5127;50.922;6.988;2023-03-11T08:48:27;13.10;69.30
10171;DHT22;5127;50.922;6.988;2023-03-11T08:50:54;13.20;68.90
10171;DHT22;5127;50.922;6.988;2023-03-11T08:53:22;13.30;68.70
10171;DHT22;5127;50.922;6.988;2023-03-11T08:55:51;13.40;68.00
10171;DHT22;5127;50.922;6.988;2023-03-11T08:58:19;13.40;67.40
10171;DHT22;5127;50.922;6.988;2023-03-11T09:00:46;13.50;67.80
10171;DHT22;5127;50.922;6.988;2023-03-11T09:03:14;13.50;67.20
10171;DHT22;5127;50.922;6.988;2023-03-11T09:05:41;13.50;66.60
10171;DHT22;5127;50.922;6.988;2023-03-11T09:08:08;13.40;66.30
10171;DHT22;5127;50.922;6.988;2023-03-11T09:10:35;13.40;65.70
10171;DHT22;5127;50.922;6.988;2023-03-11T09:13:04;13.30;65.60
10171;DHT22;5127;50.922;6.988;2023-03-11T09:15:32;13.10;64.30
10171;DHT22;5127;50.922;6.988;2023-03-11T09:18:01;13.00;64.80
10171;DHT22;5127;50.922;6.988;2023-03-11T09:20:28;12.80;64.80
10171;DHT22;5127;50.922;6.988;2023-03-11T09:22:55;12.60;64.50
10171;DHT22;5127;50.922;6.988;2023-03-11T09:25:23;12.40;64.60
10171;DHT22;5127;50.922;6.988;2023-03-11T09:27:50;12.30;64.80
10171;DHT22;5127;50.922;6.988;2023-03-11T09:30:19;12.10;64.80
10171;DHT22;5127;50.922;6.988;2023-03-11T09:32:46;11.90;64.00
10171;DHT22;5127;50.922;6.988;2023-03-11T09:35:13;11.80;64.60
10171;DHT22;5127;50.922;6.988;2023-03-11T09:37:40;11.60;64.30
10171;DHT22;5127;50.922;6.988;2023-03-11T09:40:09;11.50;63.60
10171;DHT22;5127;50.922;6.988;2023-03-11T09:42:42;11.30;63.00
10171;DHT22;5127;50.922;6.988;2023-03-11T09:45:16;11.10;62.50
10171;DHT22;5127;50.922;6.988;2023-03-11T09:48:06;10.90;62.10
10171;DHT22;5127;50.922;6.988;2023-03-11T09:50:45;10.70;61.50
10171;DHT22;5127;50.922;6.988;2023-03-11T09:53:21;10.60;61.30
10171;DHT22;5127;50.922;6.988;2023-03-11T09:55:53;10.40;62.00
10171;DHT22;5127;50.922;6.988;2023-03-11T09:58:29;10.20;63.00
10171;DHT22;5127;50.922;6.988;2023-03-11T10:00:58;10.10;61.10
10171;DHT22;5127;50.922;6.988;2023-03-11T10:03:30;10.00;62.50
10171;DHT22;5127;50.922;6.988;2023-03-11T10:06:12;9.80;62.20
10171;DHT22;5127;50.922;6.988;2023-03-11T10:08:44;9.70;60.00
10171;DHT22;5127;50.922;6.988;2023-03-11T10:11:32;9.50;61.80
10171;DHT22;5127;50.922;6.988;2023-03-11T10:14:10;9.40;60.90
10171;DHT22;5127;50.922;6.988;2023-03-11T10:16:45;9.30;61.70
10171;DHT22;5127;50.922;6.988;2023-03-11T10:19:27;9.20;62.50
10171;DHT22;5127;50.922;6.988;2023-03-11T10:22:01;9.10;63.20
10171;DHT22;5127;50.922;6.988;2023-03-11T10:24:49;9.10;63.80
10171;DHT22;5127;50.922;6.988;2023-03-11T10:27:20;9.10;63.90
10171;DHT22;5127;50.922;6.988;2023-03-11T10:29:55;9.10;64.90
10171;DHT22;5127;50.922;6.988;2023-03-11T10:32:34;9.20;64.10
10171;DHT22;5127;50.922;6.988;2023-03-11T10:35:14;9.20;63.80
10171;DHT22;5127;50.922;6.988;2023-03-11T10:37:46;9.20;63.80
10171;DHT22;5127;50.922;6.988;2023-03-11T10:40:20;9.20;64.40
10171;DHT22;5127;50.922;6.988;2023-03-11T10:42:50;9.20;64.00
10171;DHT22;5127;50.922;6.988;2023-03-11T10:45:18;9.20;64.80
10171;DHT22;5127;50.922;6.988;2023-03-11T10:47:45;9.20;65.70
10171;DHT22;5127;50.922;6.988;2023-03-11T10:50:16;9.30;66.00
10171;DHT22;5127;50.922;6.988;2023-03-11T10:53:03;9.30;65.10
10171;DHT22;5127;50.922;6.988;2023-03-11T10:55:31;9.40;63.30
10171;DHT22;5127;50.922;6.988;2023-03-11T10:58:04;9.50;66.20
10171;DHT22;5127;50.922;6.988;2023-03-11T11:00:32;9.50;65.00
10171;DHT22;5127;50.922;6.988;2023-03-11T11:03:00;9.60;66.40
10171;DHT22;5127;50.922;6.988;2023-03-11T11:05:33;9.70;66.40
10171;DHT22;5127;50.922;6.988;2023-03-11T11:08:06;9.80;64.20
10171;DHT22;5127;50.922;6.988;2023-03-11T11:10:34;9.80;63.70
10171;DHT22;5127;50.922;6.988;2023-03-11T11:13:15;9.90;65.60
10171;DHT22;5127;50.922;6.988;2023-03-11T11:15:52;9.90;62.60
10171;DHT22;5127;50.922;6.988;2023-03-11T11:18:22;9.90;63.10
10171;DHT22;5127;50.922;6.988;2023-03-11T11:20:56;9.90;64.50
10171;DHT22;5127;50.922;6.988;2023-03-11T11:23:29;9.90;63.40
10171;DHT22;5127;50.922;6.988;2023-03-11T11:25:58;9.90;64.70
10171;DHT22;5127;50.922;6.988;2023-03-11T11:28:26;9.90;65.20
10171;DHT22;5127;50.922;6.988;2023-03-11T11:30:56;9.90;65.40
10171;DHT22;5127;50.922;6.988;2023-03-11T11:33:26;9.90;64.50
10171;DHT22;5127;50.922;6.988;2023-03-11T11:35:56;10.00;63.30
10171;DHT22;5127;50.922;6.988;2023-03-11T11:38:27;10.00;63.30
10171;DHT22;5127;50.922;6.988;2023-03-11T11:40:57;10.10;63.50
10171;DHT22;5127;50.922;6.988;2023-03-11T11:43:37;10.10;64.00
10171;DHT22;5127;50.922;6.988;2023-03-11T11:46:15;10.10;62.50
10171;DHT22;5127;50.922;6.988;2023-03-11T11:48:50;10.20;62.80
10171;DHT22;5127;50.922;6.988;2023-03-11T11:51:25;10.20;63.40
10171;DHT22;5127;50.922;6.988;2023-03-11T11:53:56;10.30;63.20
10171;DHT22;5127;50.922;6.988;2023-03-11T11:56:25;10.30;63.40
10171;DHT22;5127;50.922;6.988;2023-03-11T11:58:53;10.30;63.80
10171;DHT22;5127;50.922;6.988;2023-03-11T12:01:28;10.30;64.00
10171;DHT22;5127;50.922;6.988;2023-03-11T12:53:00;8.00;68.70
10171;DHT22;5127;50.922;6.988;2023-03-11T12:55:31;8.70;61.60
10171;DHT22;5127;50.922;6.988;2023-03-11T12:58:29;8.90;63.00
10171;DHT22;5127;50.922;6.988;2023-03-11T13:01:11;9.20;61.60
10171;DHT22;5127;50.922;6.988;2023-03-11T13:03:48;9.40;62.70
10171;DHT22;5127;50.922;6.988;2023-03-11T13:09:18;9.70;62.50
10171;DHT22;5127;50.922;6.988;2023-03-11T13:11:47;9.80;64.20
10171;DHT22;5127;50.922;6.988;2023-03-11T13:14:27;9.90;64.20
10171;DHT22;5127;50.922;6.988;2023-03-11T13:16:57;10.00;61.00
10171;DHT22;5127;50.922;6.988;2023-03-11T13:19:48;10.00;62.90
10171;DHT22;5127;50.922;6.988;2023-03-11T13:25:41;10.10;59.80
10171;DHT22;5127;50.922;6.988;2023-03-11T13:28:41;10.20;59.50
10171;DHT22;5127;50.922;6.988;2023-03-11T13:31:39;10.20;59.90
10171;DHT22;5127;50.922;6.988;2023-03-11T13:34:13;10.20;60.30
10171;DHT22;5127;50.922;6.988;2023-03-11T13:36:55;10.20;61.60
10171;DHT22;5127;50.922;6.988;2023-03-11T13:39:38;10.20;61.00
10171;DHT22;5127;50.922;6.988;2023-03-11T13:42:23;10.10;59.90
10171;DHT22;5127;50.922;6.988;2023-03-11T13:44:52;10.20;59.80
10171;DHT22;5127;50.922;6.988;2023-03-11T13:47:20;10.10;62.40
10171;DHT22;5127;50.922;6.988;2023-03-11T13:49:52;10.10;61.70
10171;DHT22;5127;50.922;6.988;2023-03-11T13:52:24;10.10;60.30
10171;DHT22;5127;50.922;6.988;2023-03-11T13:54:58;10.00;60.10
10171;DHT22;5127;50.922;6.988;2023-03-11T13:57:29;10.00;59.40
10171;DHT22;5127;50.922;6.988;2023-03-11T14:00:04;9.90;61.00
10171;DHT22;5127;50.922;6.988;2023-03-11T14:02:44;9.90;60.20
10171;DHT22;5127;50.922;6.988;2023-03-11T14:05:14;9.80;60.70
10171;DHT22;5127;50.922;6.988;2023-03-11T14:07:43;9.80;60.90
10171;DHT22;5127;50.922;6.988;2023-03-11T14:10:18;9.80;61.40
10171;DHT22;5127;50.922;6.988;2023-03-11T14:12:47;9.70;59.70
10171;DHT22;5127;50.922;6.988;2023-03-11T14:15:19;9.70;60.00
10171;DHT22;5127;50.922;6.988;2023-03-11T14:17:49;9.60;59.90
10171;DHT22;5127;50.922;6.988;2023-03-11T14:20:18;9.50;60.50
10171;DHT22;5127;50.922;6.988;2023-03-11T14:22:48;9.50;60.60
10171;DHT22;5127;50.922;6.988;2023-03-11T14:25:18;9.40;60.40
10171;DHT22;5127;50.922;6.988;2023-03-11T14:27:52;9.30;60.10
10171;DHT22;5127;50.922;6.988;2023-03-11T14:30:22;9.30;59.50
10171;DHT22;5127;50.922;6.988;2023-03-11T14:32:59;9.20;60.00
10171;DHT22;5127;50.922;6.988;2023-03-11T14:35:29;9.20;58.70
10171;DHT22;5127;50.922;6.988;2023-03-11T14:37:57;9.10;60.30
10171;DHT22;5127;50.922;6.988;2023-03-11T14:40:27;9.00;60.40
10171;DHT22;5127;50.922;6.988;2023-03-11T14:42:59;9.00;60.00
10171;DHT22;5127;50.922;6.988;2023-03-11T14:45:29;8.90;59.80
10171;DHT22;5127;50.922;6.988;2023-03-11T14:48:00;8.90;60.00
10171;DHT22;5127;50.922;6.988;2023-03-11T14:50:30;8.80;59.70
10171;DHT22;5127;50.922;6.988;2023-03-11T14:53:02;8.80;60.50
10171;DHT22;5127;50.922;6.988;2023-03-11T14:55:34;8.80;59.80
10171;DHT22;5127;50.922;6.988;2023-03-11T14:58:11;8.70;59.90
10171;DHT22;5127;50.922;6.988;2023-03-11T15:00:43;8.70;59.50
10171;DHT22;5127;50.922;6.988;2023-03-11T15:03:17;8.70;60.00
10171;DHT22;5127;50.922;6.988;2023-03-11T15:05:48;8.70;59.80
10171;DHT22;5127;50.922;6.988;2023-03-11T15:08:18;8.70;60.20
10171;DHT22;5127;50.922;6.988;2023-03-11T15:11:04;8.70;60.00
10171;DHT22;5127;50.922;6.988;2023-03-11T15:13:34;8.70;59.10
10171;DHT22;5127;50.922;6.988;2023-03-11T15:16:04;8.70;59.70
10171;DHT22;5127;50.922;6.988;2023-03-11T15:18:34;8.70;60.00
10171;DHT22;5127;50.922;6.988;2023-03-11T15:21:14;8.70;60.00
10171;DHT22;5127;50.922;6.988;2023-03-11T15:23:45;8.70;58.50
10171;DHT22;5127;50.922;6.988;2023-03-11T15:26:19;8.70;59.70
10171;DHT22;5127;50.922;6.988;2023-03-11T15:28:52;8.70;59.40
10171;DHT22;5127;50.922;6.988;2023-03-11T15:31:34;8.70;59.70
10171;DHT22;5127;50.922;6.988;2023-03-11T15:34:10;8.70;58.60
10171;DHT22;5127;50.922;6.988;2023-03-11T15:36:55;8.70;59.20
10171;DHT22;5127;50.922;6.988;2023-03-11T15:39:26;8.70;59.30
10171;DHT22;5127;50.922;6.988;2023-03-11T15:41:59;8.80;59.90
10171;DHT22;5127;50.922;6.988;2023-03-11T15:44:30;8.80;59.60
10171;DHT22;5127;50.922;6.988;2023-03-11T15:47:11;8.80;59.80
10171;DHT22;5127;50.922;6.988;2023-03-11T15:49:40;8.80;59.60
10171;DHT22;5127;50.922;6.988;2023-03-11T15:52:07;8.80;61.00
10171;DHT22;5127;50.922;6.988;2023-03-11T15:54:35;8.80;60.80
10171;DHT22;5127;50.922;6.988;2023-03-11T15:57:06;8.90;61.10
10171;DHT22;5127;50.922;6.988;2023-03-11T15:59:36;8.90;60.40
10171;DHT22;5127;50.922;6.988;2023-03-11T16:02:14;8.90;60.30
10171;DHT22;5127;50.922;6.988;2023-03-11T16:04:46;8.90;59.20
10171;DHT22;5127;50.922;6.988;2023-03-11T16:07:13;9.00;61.20
10171;DHT22;5127;50.922;6.988;2023-03-11T16:09:40;9.00;60.90
10171;DHT22;5127;50.922;6.988;2023-03-11T16:12:17;9.00;61.00
10171;DHT22;5127;50.922;6.988;2023-03-11T16:14:46;9.00;59.50
10171;DHT22;5127;50.922;6.988;2023-03-11T16:17:14;9.00;60.20
10171;DHT22;5127;50.922;6.988;2023-03-11T16:19:44;9.00;60.60
10171;DHT22;5127;50.922;6.988;2023-03-11T16:22:15;9.10;60.50
10171;DHT22;5127;50.922;6.988;2023-03-11T16:24:44;9.00;59.70
10171;DHT22;5127;50.922;6.988;2023-03-11T16:27:13;9.00;60.30
10171;DHT22;5127;50.922;6.988;2023-03-11T16:29:42;9.00;60.30
10171;DHT22;5127;50.922;6.988;2023-03-11T16:32:11;9.00;60.10
10171;DHT22;5127;50.922;6.988;2023-03-11T16:34:39;8.90;59.80
10171;DHT22;5127;50.922;6.988;2023-03-11T16:37:07;8.90;59.80
10171;DHT22;5127;50.922;6.988;2023-03-11T16:39:34;8.90;59.60
10171;DHT22;5127;50.922;6.988;2023-03-11T16:42:03;8.90;59.80
10171;DHT22;5127;50.922;6.988;2023-03-11T16:44:30;8.80;59.60
10171;DHT22;5127;50.922;6.988;2023-03-11T16:46:57;8.90;59.60
10171;DHT22;5127;50.922;6.988;2023-03-11T16:49:26;8.80;59.50
10171;DHT22;5127;50.922;6.988;2023-03-11T16:51:54;8.70;59.40
10171;DHT22;5127;50.922;6.988;2023-03-11T16:54:21;8.70;59.70
10171;DHT22;5127;50.922;6.988;2023-03-11T16:56:48;8.70;59.90
10171;DHT22;5127;50.922;6.988;2023-03-11T16:59:15;8.60;59.80
10171;DHT22;5127;50.922;6.988;2023-03-11T17:01:43;8.60;59.90
10171;DHT22;5127;50.922;6.988;2023-03-11T17:04:10;8.50;60.00
10171;DHT22;5127;50.922;6.988;2023-03-11T17:06:38;8.50;60.30
10171;DHT22;5127;50.922;6.988;2023-03-11T17:09:06;8.50;59.90
10171;DHT22;5127;50.922;6.988;2023-03-11T17:11:33;8.40;60.30
10171;DHT22;5127;50.922;6.988;2023-03-11T17:14:00;8.40;60.30
10171;DHT22;5127;50.922;6.988;2023-03-11T17:16:28;8.30;60.00
10171;DHT22;5127;50.922;6.988;2023-03-11T17:18:55;8.30;60.10